Charter Oak, California
Current Conditions -  °F | °C
As of 3:53 PM on Monday 20 Oct 2014 (Local Time) from KONT Reporting Station
Scattered Clouds Scattered Clouds  
Wind Chill: 80°   Ceiling: Unl
Heat Index: 80°   Visibility: 10mi
Dew Point: 54°   Wind: 8mph
Humidity: 40%   Direction: 260°W
Pressure: 29.87"   Gusts: NA
Location:  34.0808°N, 117.854°W
Report Text: KONT 202253Z 26007KT 10SM FEW085 SCT250 27/12 A2987 RMK AO2 SLP101 T02670122
Loading
Personal Weather Stations






























Interactive Weather Map
Tropical Storm Tracking
New forecast layout! Learn more

10-Day Weather Forecast

Advertisements
Track Severe Weather on mobile